createdAt,value
2019-04-30T00:01:14.707Z,23.22
2019-04-30T00:04:06.847Z,22.95
2019-04-30T00:06:39.437Z,23.70
2019-04-30T00:09:09.649Z,22.95
2019-04-30T00:11:41.737Z,22.90
2019-04-30T00:14:11.657Z,22.98
2019-04-30T00:16:41.489Z,23.27
2019-04-30T00:19:15.811Z,23.25
2019-04-30T00:21:42.794Z,23.92
2019-04-30T00:24:12.699Z,24.40
2019-04-30T00:26:45.391Z,23.27
2019-04-30T00:29:19.083Z,24.15
2019-04-30T00:31:48.551Z,24.20
2019-04-30T00:34:18.408Z,23.95
2019-04-30T00:36:48.387Z,23.57
2019-04-30T00:39:18.264Z,24.18
2019-04-30T00:41:48.143Z,24.65
2019-04-30T00:44:19.845Z,23.65
2019-04-30T00:46:49.587Z,22.87
2019-04-30T00:49:23.295Z,23.65
2019-04-30T00:51:54.715Z,23.27
2019-04-30T00:54:28.000Z,23.67
2019-04-30T00:56:57.484Z,23.85
2019-04-30T00:59:26.151Z,23.98
2019-04-30T01:02:20.014Z,23.38
2019-04-30T01:04:48.265Z,23.42
2019-04-30T01:07:18.268Z,24.37
2019-04-30T01:09:49.821Z,23.80
2019-04-30T01:12:25.312Z,23.92
2019-04-30T01:14:51.581Z,24.20
2019-04-30T01:17:21.423Z,24.30
2019-04-30T01:19:54.495Z,24.47
2019-04-30T01:22:28.026Z,23.90
2019-04-30T01:24:54.423Z,24.07
2019-04-30T01:27:24.665Z,24.02
2019-04-30T01:29:54.671Z,23.15
2019-04-30T01:32:24.497Z,23.92
2019-04-30T01:34:55.465Z,23.67
2019-04-30T01:37:29.568Z,23.75
2019-04-30T01:39:58.795Z,24.52
2019-04-30T01:42:28.549Z,23.35
2019-04-30T01:44:58.943Z,24.12
2019-04-30T01:47:31.229Z,24.30
2019-04-30T01:50:04.718Z,24.10
2019-04-30T01:52:49.816Z,24.20
2019-04-30T01:55:21.374Z,24.40
2019-04-30T01:58:04.503Z,24.82
2019-04-30T02:00:53.390Z,24.37
2019-04-30T02:03:23.287Z,24.57
2019-04-30T02:05:53.167Z,23.60
2019-04-30T02:08:22.962Z,23.60
2019-04-30T02:10:52.819Z,23.70
2019-04-30T02:13:22.666Z,23.75
2019-04-30T02:15:52.454Z,23.70
2019-04-30T02:18:22.345Z,23.12
2019-04-30T02:20:52.126Z,23.22
2019-04-30T02:23:21.984Z,23.17
2019-04-30T02:25:51.801Z,23.02
2019-04-30T02:28:21.625Z,22.35
2019-04-30T02:30:51.438Z,22.98
2019-04-30T02:33:21.567Z,22.77
2019-04-30T02:36:11.724Z,22.52
2019-04-30T02:38:45.375Z,21.60
2019-04-30T02:41:16.110Z,22.37
2019-04-30T02:43:49.743Z,21.75
2019-04-30T02:46:20.063Z,21.17
2019-04-30T02:48:52.792Z,21.40
2019-04-30T02:51:25.159Z,21.48
2019-04-30T02:54:25.484Z,20.85
2019-04-30T02:57:00.720Z,21.82
2019-04-30T02:59:30.506Z,20.65
2019-04-30T03:02:00.311Z,20.88
2019-04-30T03:04:30.151Z,20.60
2019-04-30T03:07:00.026Z,21.90
2019-04-30T03:09:31.361Z,20.77
2019-04-30T03:12:01.319Z,20.40
2019-04-30T03:14:31.127Z,20.77
2019-04-30T03:17:14.966Z,20.95
2019-04-30T03:19:50.217Z,21.45
2019-04-30T03:22:22.683Z,20.23
2019-04-30T03:24:52.611Z,20.52
2019-04-30T03:27:24.802Z,20.27
2019-04-30T03:29:54.118Z,20.88
2019-04-30T03:32:23.886Z,20.85
2019-04-30T03:34:53.785Z,21.10
2019-04-30T03:37:23.843Z,20.05
2019-04-30T03:39:53.723Z,20.20
2019-04-30T03:42:23.656Z,20.20
2019-04-30T03:44:53.559Z,20.45
2019-04-30T03:47:23.465Z,19.65
2019-04-30T03:49:53.268Z,20.90
2019-04-30T03:52:23.194Z,20.08
2019-04-30T03:54:52.981Z,20.52
2019-04-30T03:57:22.803Z,20.52
2019-04-30T03:59:52.706Z,20.53
2019-04-30T04:02:30.321Z,19.90
2019-04-30T04:05:10.803Z,20.35
2019-04-30T04:07:55.901Z,20.50
2019-04-30T04:10:35.342Z,20.25
2019-04-30T04:13:05.234Z,20.30
2019-04-30T04:15:35.056Z,20.45
2019-04-30T04:18:04.959Z,19.82
2019-04-30T04:20:34.871Z,21.30
2019-04-30T04:23:04.902Z,19.95
2019-04-30T04:25:34.697Z,19.80
2019-04-30T04:28:05.687Z,20.02
2019-04-30T04:30:35.597Z,19.73
2019-04-30T04:33:05.498Z,19.45
2019-04-30T04:35:35.320Z,20.35
2019-04-30T04:38:05.181Z,20.55
2019-04-30T04:40:35.119Z,20.55
2019-04-30T04:43:04.997Z,19.90
2019-04-30T04:45:34.794Z,20.35
2019-04-30T04:48:04.854Z,20.00
2019-04-30T04:50:34.714Z,20.68
2019-04-30T04:53:07.608Z,20.52
2019-04-30T04:55:36.337Z,20.40
2019-04-30T04:58:06.129Z,20.13
2019-04-30T05:00:35.951Z,21.30
2019-04-30T05:03:24.836Z,20.37
2019-04-30T05:05:54.734Z,20.43
2019-04-30T05:08:24.626Z,20.13
2019-04-30T05:10:54.448Z,19.95
2019-04-30T05:13:24.347Z,21.30
2019-04-30T05:15:54.216Z,20.43
2019-04-30T05:18:24.107Z,20.27
2019-04-30T05:20:54.022Z,20.75
2019-04-30T05:23:23.838Z,20.70
2019-04-30T05:25:53.779Z,21.15
2019-04-30T05:28:23.678Z,20.82
2019-04-30T05:30:54.602Z,20.40
2019-04-30T05:33:24.429Z,20.37
2019-04-30T05:35:54.222Z,20.30
2019-04-30T05:38:24.088Z,20.77
2019-04-30T05:40:54.006Z,20.20
2019-04-30T05:43:23.838Z,19.62
2019-04-30T05:45:53.711Z,20.23
2019-04-30T05:48:23.518Z,20.65
2019-04-30T05:50:56.213Z,19.98
2019-04-30T05:53:26.239Z,20.50
2019-04-30T05:55:56.138Z,20.27
2019-04-30T05:58:26.034Z,19.87
2019-04-30T06:00:55.854Z,19.65
2019-04-30T06:03:30.763Z,20.00
2019-04-30T06:05:58.900Z,20.08
2019-04-30T06:08:35.175Z,20.17
2019-04-30T06:11:15.420Z,19.95
2019-04-30T06:14:04.319Z,20.43
2019-04-30T06:16:34.166Z,20.85
2019-04-30T06:19:04.102Z,21.07
2019-04-30T06:21:33.965Z,20.30
2019-04-30T06:24:03.869Z,20.08
2019-04-30T06:26:33.835Z,20.27
2019-04-30T06:29:03.822Z,20.10
2019-04-30T06:31:37.377Z,20.13
2019-04-30T06:34:05.384Z,20.23
2019-04-30T06:36:35.346Z,20.25
2019-04-30T06:39:06.969Z,19.77
2019-04-30T06:41:39.523Z,20.30
2019-04-30T06:44:09.754Z,20.00
2019-04-30T06:46:40.210Z,19.75
2019-04-30T06:49:10.962Z,19.15
2019-04-30T06:51:40.854Z,18.67
2019-04-30T06:54:11.097Z,19.07
2019-04-30T06:56:41.169Z,18.00
2019-04-30T06:59:11.138Z,17.67
2019-04-30T07:01:40.976Z,18.02
2019-04-30T07:04:10.996Z,15.72
2019-04-30T07:06:44.127Z,15.83
2019-04-30T07:09:51.490Z,14.87
2019-04-30T07:12:27.338Z,14.20
2019-04-30T07:14:51.921Z,14.33
2019-04-30T07:17:21.879Z,14.10
2019-04-30T07:19:56.552Z,13.05
2019-04-30T07:22:36.616Z,13.32
2019-04-30T07:24:54.754Z,13.22
2019-04-30T07:27:24.670Z,13.32
2019-04-30T07:29:54.590Z,12.68
2019-04-30T07:32:24.497Z,12.60
2019-04-30T07:34:54.334Z,13.08
2019-04-30T07:37:24.799Z,13.53
2019-04-30T07:39:54.847Z,13.68
2019-04-30T07:42:24.655Z,13.60
2019-04-30T07:44:54.497Z,13.35
2019-04-30T07:47:24.479Z,14.60
2019-04-30T07:49:55.957Z,14.13
2019-04-30T07:52:30.036Z,14.83
2019-04-30T07:55:00.688Z,14.80
2019-04-30T07:57:32.875Z,14.53
2019-04-30T08:00:02.704Z,15.83
2019-04-30T08:02:41.526Z,14.35
2019-04-30T08:05:15.994Z,15.03
2019-04-30T08:07:45.890Z,15.27
2019-04-30T08:10:16.051Z,14.07
2019-04-30T08:12:46.224Z,15.15
2019-04-30T08:15:16.435Z,14.95
2019-04-30T08:17:46.366Z,14.87
2019-04-30T08:20:16.266Z,15.10
2019-04-30T08:22:46.206Z,15.30
2019-04-30T08:25:18.797Z,14.95
2019-04-30T08:27:49.286Z,15.08
2019-04-30T08:30:26.209Z,14.95
2019-04-30T08:32:51.058Z,15.00
2019-04-30T08:35:20.903Z,15.50
2019-04-30T08:37:50.763Z,14.47
2019-04-30T08:40:20.651Z,13.83
2019-04-30T08:42:50.490Z,13.77
2019-04-30T08:45:20.447Z,14.70
2019-04-30T08:47:50.265Z,13.43
2019-04-30T08:50:21.280Z,13.88
2019-04-30T08:52:51.460Z,13.28
2019-04-30T08:55:23.486Z,14.43
2019-04-30T08:57:53.108Z,14.60
2019-04-30T09:00:22.967Z,14.85
2019-04-30T09:02:52.862Z,14.33
2019-04-30T09:05:30.752Z,12.35
2019-04-30T09:08:01.736Z,11.80
2019-04-30T09:10:32.605Z,11.48
2019-04-30T09:13:02.779Z,11.25
2019-04-30T09:15:32.711Z,12.03
2019-04-30T09:18:06.341Z,12.40
2019-04-30T09:20:34.110Z,12.07
2019-04-30T09:23:03.978Z,12.13
2019-04-30T09:25:33.873Z,11.78
2019-04-30T09:28:04.519Z,11.08
2019-04-30T09:30:34.554Z,10.75
2019-04-30T09:33:04.480Z,10.63
2019-04-30T09:35:34.358Z,10.93
2019-04-30T09:38:04.180Z,10.10
2019-04-30T09:40:34.045Z,10.20
2019-04-30T09:43:03.978Z,10.98
2019-04-30T09:45:34.138Z,10.78
2019-04-30T09:48:04.039Z,10.43
2019-04-30T09:50:34.657Z,10.48
2019-04-30T09:53:04.968Z,10.38
2019-04-30T09:55:34.912Z,10.82
2019-04-30T09:58:14.249Z,11.13
2019-04-30T10:00:36.489Z,10.93
2019-04-30T10:03:07.511Z,10.25
2019-04-30T10:05:39.133Z,9.95
2019-04-30T10:08:09.223Z,9.15
2019-04-30T10:10:51.160Z,9.47
2019-04-30T10:13:22.342Z,9.50
2019-04-30T10:16:02.013Z,9.28
2019-04-30T10:18:31.866Z,9.43
2019-04-30T10:21:01.806Z,8.70
2019-04-30T10:23:31.626Z,9.13
2019-04-30T10:26:02.003Z,9.33
2019-04-30T10:28:33.478Z,9.30
2019-04-30T10:31:03.437Z,10.10
2019-04-30T10:33:33.486Z,9.85
2019-04-30T10:36:03.422Z,9.63
2019-04-30T10:38:33.262Z,9.73
2019-04-30T10:41:03.281Z,9.77
2019-04-30T10:43:34.163Z,9.23
2019-04-30T10:46:07.023Z,9.20
2019-04-30T10:48:36.943Z,9.70
2019-04-30T10:51:08.904Z,10.25
2019-04-30T10:53:38.664Z,9.43
2019-04-30T10:56:09.727Z,8.55
2019-04-30T10:58:39.801Z,8.00
2019-04-30T11:01:09.766Z,9.08
2019-04-30T11:03:39.723Z,8.55
2019-04-30T11:06:09.565Z,8.00
2019-04-30T11:08:39.669Z,7.40
2019-04-30T11:11:09.673Z,7.27
2019-04-30T11:13:39.668Z,7.22
2019-04-30T11:16:14.751Z,7.20
2019-04-30T11:18:41.271Z,6.72
2019-04-30T11:21:11.496Z,6.73
2019-04-30T11:23:41.718Z,6.67
2019-04-30T11:26:12.148Z,7.33
2019-04-30T11:28:42.614Z,7.33
2019-04-30T11:31:34.293Z,7.00
2019-04-30T11:34:04.678Z,7.05
2019-04-30T11:36:34.583Z,10.93
2019-04-30T11:39:09.285Z,7.30
2019-04-30T11:41:39.607Z,7.97
2019-04-30T11:44:09.562Z,8.50
2019-04-30T11:47:24.778Z,7.50
2019-04-30T11:49:54.830Z,7.95
2019-04-30T11:52:24.995Z,8.00
2019-04-30T11:54:54.975Z,7.62
2019-04-30T11:57:24.932Z,7.80
2019-04-30T11:59:54.793Z,8.60
2019-04-30T12:02:39.322Z,8.53
2019-04-30T12:05:11.110Z,7.95
2019-04-30T12:07:55.540Z,8.45
2019-04-30T12:10:56.528Z,7.42
2019-04-30T12:13:27.600Z,7.00
2019-04-30T12:15:58.890Z,7.20
2019-04-30T12:18:29.377Z,7.75
2019-04-30T12:20:59.389Z,7.97
2019-04-30T12:23:30.271Z,7.67
2019-04-30T12:26:02.860Z,8.08
2019-04-30T12:28:31.683Z,8.03
2019-04-30T12:31:07.419Z,8.10
2019-04-30T12:33:37.225Z,7.50
2019-04-30T12:36:08.908Z,7.35
2019-04-30T12:38:38.689Z,7.53
2019-04-30T12:41:08.674Z,7.33
2019-04-30T12:43:38.557Z,6.90
2019-04-30T12:46:08.502Z,7.10
2019-04-30T12:49:06.533Z,7.47
2019-04-30T12:52:01.361Z,8.10
2019-04-30T12:54:39.679Z,7.72
2019-04-30T12:57:29.320Z,6.67
2019-04-30T13:00:00.397Z,6.53
2019-04-30T13:02:30.108Z,7.03
2019-04-30T13:05:00.539Z,7.27
2019-04-30T13:07:31.407Z,8.03
2019-04-30T13:10:02.726Z,7.10
2019-04-30T13:12:33.474Z,6.47
2019-04-30T13:15:04.066Z,7.65
2019-04-30T13:17:33.870Z,7.65
2019-04-30T13:20:03.887Z,7.57
2019-04-30T13:22:33.802Z,7.15
2019-04-30T13:25:04.325Z,7.75
2019-04-30T13:27:36.576Z,7.30
2019-04-30T13:30:13.737Z,8.85
2019-04-30T13:32:56.507Z,8.20
2019-04-30T13:35:29.080Z,8.10
2019-04-30T13:38:05.287Z,8.13
2019-04-30T13:40:44.349Z,8.10
2019-04-30T13:43:14.953Z,7.72
2019-04-30T13:45:44.746Z,8.00
2019-04-30T13:48:14.577Z,7.35
2019-04-30T13:50:44.398Z,6.37
2019-04-30T13:55:45.907Z,6.97
2019-04-30T13:58:17.515Z,6.50
2019-04-30T14:00:49.315Z,7.30
2019-04-30T14:03:29.165Z,6.90
2019-04-30T14:05:59.465Z,6.78
2019-04-30T14:08:34.654Z,6.50
2019-04-30T14:11:04.535Z,8.30
2019-04-30T14:13:34.442Z,6.78
2019-04-30T14:16:04.430Z,7.35
2019-04-30T14:18:34.333Z,6.70
2019-04-30T14:21:04.249Z,7.22
2019-04-30T14:23:34.174Z,7.00
2019-04-30T14:26:04.166Z,6.72
2019-04-30T14:28:34.042Z,6.78
2019-04-30T14:31:04.278Z,7.43
2019-04-30T14:33:35.656Z,6.95
2019-04-30T14:36:05.543Z,7.40
2019-04-30T14:38:35.396Z,7.92
2019-04-30T14:41:06.583Z,7.95
2019-04-30T14:43:42.950Z,7.25
2019-04-30T14:46:32.668Z,8.00
2019-04-30T14:49:22.078Z,7.35
2019-04-30T14:51:52.410Z,7.20
2019-04-30T14:54:28.538Z,7.50
2019-04-30T14:57:02.914Z,7.70
2019-04-30T15:00:08.662Z,8.30
2019-04-30T15:02:50.123Z,7.60
2019-04-30T15:05:19.986Z,7.78
2019-04-30T15:07:49.839Z,7.40
2019-04-30T15:10:19.625Z,7.55
2019-04-30T15:12:49.446Z,7.80
2019-04-30T15:15:19.333Z,8.35
2019-04-30T15:17:49.399Z,7.95
2019-04-30T15:20:19.779Z,8.07
2019-04-30T15:23:18.904Z,7.80
2019-04-30T15:25:42.705Z,8.10
2019-04-30T15:28:12.578Z,8.28
2019-04-30T15:30:42.544Z,8.83
2019-04-30T15:33:25.198Z,7.90
2019-04-30T15:35:55.138Z,8.85
2019-04-30T15:38:44.014Z,7.90
2019-04-30T15:41:16.830Z,7.90
2019-04-30T15:43:48.328Z,7.80
2019-04-30T15:46:18.272Z,7.70
2019-04-30T15:48:48.197Z,7.67
2019-04-30T15:51:18.167Z,7.53
2019-04-30T15:53:48.087Z,8.10
2019-04-30T15:56:19.292Z,8.08
2019-04-30T15:59:15.154Z,7.25
2019-04-30T16:01:49.027Z,7.83
2019-04-30T16:04:23.070Z,7.60
2019-04-30T16:06:53.055Z,8.33
2019-04-30T16:09:28.619Z,7.78
2019-04-30T16:12:10.653Z,8.13
2019-04-30T16:14:40.659Z,7.92
2019-04-30T16:17:20.636Z,7.70
2019-04-30T16:19:51.086Z,7.90
2019-04-30T16:22:22.164Z,8.40
2019-04-30T16:24:54.576Z,8.20
2019-04-30T16:27:23.807Z,7.72
2019-04-30T16:29:53.715Z,8.45
2019-04-30T16:32:24.297Z,8.63
2019-04-30T16:34:54.296Z,8.58
2019-04-30T16:37:24.317Z,8.58
2019-04-30T16:39:54.252Z,8.83
2019-04-30T16:42:24.230Z,8.18
2019-04-30T16:44:54.166Z,8.33
2019-04-30T16:47:24.116Z,8.60
2019-04-30T16:49:54.134Z,8.85
2019-04-30T16:52:24.034Z,8.40
2019-04-30T16:54:54.015Z,8.23
2019-04-30T16:57:23.947Z,8.40
2019-04-30T16:59:53.836Z,7.97
2019-04-30T17:02:25.392Z,7.27
2019-04-30T17:05:03.207Z,8.00
